Time;durP1;ratioP1;P1;durP2;ratioP2;P2;SDS_P1;SDS_P2;PMS_P1;PMS_P2;Temp;Humidity;BMP_temperature;BMP_pressure;BME280_temperature;BME280_humidity;BME280_pressure;Samples;Min_cycle;Max_cycle;Signal;HPM_P1;HPM_P2
2021/05/02 09:35:49;;;;;;;;;6.00;5.50;;;;;16.23;52.94;96818.56;4925816;23;104869;-75
2021/05/02 09:38:17;;;;;;;;;5.25;5.25;;;;;16.23;53.16;96826.75;4771792;29;105686;-75
2021/05/02 09:40:50;;;;;;;;;4.75;4.75;;;;;16.23;53.04;96842.28;4779990;29;103676;-75
2021/05/02 09:43:41;;;;;;;;;4.25;4.25;;;;;16.23;52.99;96843.13;4775288;29;102969;-75
2021/05/02 09:46:49;;;;;;;;;4.75;4.75;;;;;16.24;52.87;96860.31;4687176;29;102347;-75
2021/05/02 09:49:16;;;;;;;;;4.25;3.75;;;;;16.22;52.79;96857.84;4658500;29;109145;-75
2021/05/02 09:51:48;;;;;;;;;5.00;5.00;;;;;16.24;52.64;96876.66;4780977;29;104825;-75
2021/05/02 09:54:21;;;;;;;;;4.75;4.00;;;;;16.23;52.67;96892.22;4765347;29;102506;-75
2021/05/02 09:56:52;;;;;;;;;5.50;4.25;;;;;16.23;52.69;96896.84;4777177;29;103717;-75
2021/05/02 09:59:23;;;;;;;;;4.25;4.25;;;;;16.23;52.85;96903.13;4776410;29;109248;-75
2021/05/02 10:02:20;;;;;;;;;3.75;3.75;;;;;16.21;52.62;96915.41;4790070;29;102095;-77
2021/05/02 10:04:55;;;;;;;;;6.50;4.25;;;;;16.17;54.13;96926.03;4715185;29;102283;-76
2021/05/02 10:07:26;;;;;;;;;6.00;5.00;;;;;16.16;53.63;96934.50;4782287;29;102473;-76
2021/05/02 10:09:53;;;;;;;;;5.00;4.00;;;;;16.16;53.61;96945.41;4789210;29;109111;-76
2021/05/02 10:12:20;;;;;;;;;6.75;5.00;;;;;16.14;54.42;96958.50;4759799;29;104669;-76
2021/05/02 10:14:47;;;;;;;;;6.50;5.50;;;;;16.12;53.90;96966.16;4766336;29;102186;-76
2021/05/02 10:17:14;;;;;;;;;6.00;5.00;;;;;16.10;54.43;96976.50;4775458;29;102855;-76
2021/05/02 10:19:42;;;;;;;;;6.00;6.00;;;;;16.07;54.79;96989.59;4770617;29;105921;-76
2021/05/02 10:22:10;;;;;;;;;6.00;6.00;;;;;16.08;54.45;96980.31;4771225;29;102714;-76
2021/05/02 10:24:37;;;;;;;;;4.00;4.00;;;;;16.07;54.76;96995.03;4775513;29;102590;-75
2021/05/02 10:27:08;;;;;;;;;5.00;5.00;;;;;16.07;54.70;96999.69;4782999;29;103459;-76
2021/05/02 10:29:39;;;;;;;;;4.00;3.75;;;;;16.05;54.30;96997.25;4750874;29;104000;-76
2021/05/02 10:32:11;;;;;;;;;3.25;3.25;;;;;16.05;54.52;96999.97;4768654;29;104196;-76
2021/05/02 10:34:48;;;;;;;;;4.25;4.25;;;;;16.03;54.41;97007.59;4768155;29;102313;-76
2021/05/02 10:37:28;;;;;;;;;4.25;4.25;;;;;16.05;54.39;97010.88;4763738;29;104154;-76
2021/05/02 10:39:58;;;;;;;;;4.00;4.00;;;;;16.04;54.21;97020.13;4760217;29;110109;-76
2021/05/02 10:42:54;;;;;;;;;4.00;3.25;;;;;16.04;54.13;97036.50;4772444;29;102682;-76
2021/05/02 10:45:27;;;;;;;;;4.00;3.25;;;;;16.03;54.82;97040.31;4759204;29;103879;-76
2021/05/02 10:47:54;;;;;;;;;5.75;4.00;;;;;16.03;54.55;97045.75;4759265;29;104603;-76
2021/05/02 10:50:25;;;;;;;;;4.00;4.00;;;;;16.02;54.33;97059.69;4765159;29;104105;-76
2021/05/02 10:53:10;;;;;;;;;3.00;3.00;;;;;16.00;54.26;97073.59;4756723;29;102468;-76
2021/05/02 10:56:00;;;;;;;;;3.00;3.00;;;;;15.99;53.91;97074.66;4716933;29;104189;-76
2021/05/02 10:58:28;;;;;;;;;5.00;3.00;;;;;15.99;54.31;97092.94;4741514;29;103267;-76
2021/05/02 11:01:09;;;;;;;;;2.00;2.00;;;;;15.99;54.23;97096.47;4766371;29;104248;-76
2021/05/02 11:03:38;;;;;;;;;3.00;3.00;;;;;15.97;54.12;97098.66;4772856;29;102458;-76
2021/05/02 11:06:06;;;;;;;;;2.00;2.00;;;;;16.01;54.24;97099.75;4762854;29;104065;-77
2021/05/02 11:08:56;;;;;;;;;4.00;3.00;;;;;16.05;53.93;97111.75;4763643;29;102368;-77
2021/05/02 11:11:38;;;;;;;;;2.50;2.25;;;;;16.07;54.66;97120.47;4763494;29;109490;-77
2021/05/02 11:14:11;;;;;;;;;2.50;2.00;;;;;16.08;54.58;97119.38;4708979;29;103630;-77
2021/05/02 11:16:54;;;;;;;;;4.00;3.25;;;;;16.07;54.07;97125.91;4755821;29;103772;-80
2021/05/02 11:19:24;;;;;;;;;4.00;3.00;;;;;16.08;54.21;97135.75;4762102;29;102676;-80
2021/05/02 11:21:52;;;;;;;;;4.00;4.00;;;;;16.10;54.57;97140.94;4759458;29;109547;-80
2021/05/02 11:24:20;;;;;;;;;3.50;3.50;;;;;16.12;53.84;97151.56;4768591;29;102634;-80
2021/05/02 11:29:25;;;;;;;;;3.00;3.00;;;;;16.12;53.71;97157.03;4763965;29;102469;-78
2021/05/02 11:31:52;;;;;;;;;3.00;3.00;;;;;16.12;53.58;97168.72;4773113;29;111134;-78
2021/05/02 11:34:19;;;;;;;;;4.00;3.00;;;;;16.12;53.75;97176.91;4765281;29;102399;-78
2021/05/02 11:36:46;;;;;;;;;4.00;4.00;;;;;16.13;53.26;97177.72;4772534;29;102454;-78
2021/05/02 11:39:31;;;;;;;;;4.50;3.00;;;;;16.13;53.50;97194.91;4752556;29;102564;-78
2021/05/02 11:42:07;;;;;;;;;5.75;3.00;;;;;16.12;53.55;97190.53;4762196;29;109181;-78
2021/05/02 11:44:34;;;;;;;;;3.00;3.00;;;;;16.13;53.40;97197.66;4774562;29;111449;-78
2021/05/02 11:47:10;;;;;;;;;3.25;3.00;;;;;16.14;53.36;97214.84;4769250;29;102820;-78
2021/05/02 11:49:41;;;;;;;;;3.25;2.25;;;;;16.14;53.44;97203.91;4785501;29;103499;-78
2021/05/02 11:52:08;;;;;;;;;5.00;3.00;;;;;16.12;52.96;97215.09;4779701;29;103116;-77
2021/05/02 11:54:36;;;;;;;;;3.00;2.75;;;;;16.12;53.30;97217.03;4782623;29;102576;-77
2021/05/02 11:57:02;;;;;;;;;3.50;3.00;;;;;16.13;53.42;97218.63;4784730;29;102667;-77
2021/05/02 11:59:29;;;;;;;;;2.00;1.50;;;;;16.12;53.46;97222.47;4781627;29;102345;-77
2021/05/02 12:01:56;;;;;;;;;3.00;3.00;;;;;16.12;53.71;97233.38;4789802;29;104562;-77
2021/05/02 12:04:23;;;;;;;;;2.25;1.00;;;;;16.11;53.26;97235.28;4773429;29;103386;-77
2021/05/02 12:06:57;;;;;;;;;3.00;2.00;;;;;16.10;53.69;97244.56;4783711;29;102119;-77
2021/05/02 12:09:26;;;;;;;;;2.00;2.00;;;;;16.10;53.48;97246.47;4770444;29;102621;-77
2021/05/02 12:11:54;;;;;;;;;2.00;2.00;;;;;16.13;52.93;97248.63;4770095;29;108833;-77
2021/05/02 12:14:24;;;;;;;;;3.00;2.00;;;;;16.12;53.34;97260.66;4777538;29;102537;-77
2021/05/02 12:16:55;;;;;;;;;2.25;2.00;;;;;16.11;53.24;97259.84;4771658;29;103274;-77
2021/05/02 12:19:22;;;;;;;;;6.00;4.00;;;;;16.12;53.32;97260.66;4780716;29;102138;-77
2021/05/02 12:21:50;;;;;;;;;3.00;2.00;;;;;16.12;52.96;97263.38;4787191;29;104277;-77
2021/05/02 12:24:19;;;;;;;;;1.50;1.50;;;;;16.14;53.38;97263.91;4778026;29;102240;-77
2021/05/02 12:26:48;;;;;;;;;2.75;2.75;;;;;16.13;52.73;97265.00;4779421;29;104101;-77
2021/05/02 12:29:28;;;;;;;;;3.25;2.75;;;;;16.13;53.43;97290.38;4786260;29;104056;-77
2021/05/02 12:31:56;;;;;;;;;1.75;1.75;;;;;16.13;53.16;97281.34;4766223;29;109172;-77
2021/05/02 12:34:31;;;;;;;;;3.00;3.00;;;;;16.12;52.96;97285.19;4790339;29;104351;-78
2021/05/02 12:37:13;;;;;;;;;3.50;2.00;;;;;16.14;52.84;97291.19;4702515;29;111847;-77
2021/05/02 12:39:41;;;;;;;;;2.00;2.00;;;;;16.13;52.89;97290.38;4794657;29;102543;-77
2021/05/02 12:42:09;;;;;;;;;3.50;3.00;;;;;16.14;52.76;97288.47;4754611;29;104061;-77
2021/05/02 12:44:38;;;;;;;;;4.25;2.00;;;;;16.13;53.05;97295.81;4772457;29;102600;-77
2021/05/02 12:47:19;;;;;;;;;2.50;2.00;;;;;16.13;52.82;97312.19;4770837;29;104333;-77
2021/05/02 12:49:57;;;;;;;;;2.00;2.00;;;;;16.13;53.00;97304.00;4791007;29;102829;-79
2021/05/02 12:52:38;;;;;;;;;2.00;2.00;;;;;16.14;52.98;97315.72;4786988;29;109020;-77
2021/05/02 12:55:21;;;;;;;;;1.67;1.67;;;;;16.13;52.85;97312.19;4765136;29;106082;-77
2021/05/02 12:57:56;;;;;;;;;1.50;1.00;;;;;16.14;52.98;97334.81;4775747;29;102262;-77
2021/05/02 13:00:39;;;;;;;;;2.25;2.00;;;;;16.16;53.02;97332.66;4782623;29;103764;-77
2021/05/02 13:03:30;;;;;;;;;3.00;1.75;;;;;16.14;53.28;97357.47;4730582;29;107954;-77
2021/05/02 13:06:14;;;;;;;;;2.50;2.50;;;;;16.14;52.81;97373.81;4786954;29;102783;-77
2021/05/02 13:08:58;;;;;;;;;2.00;1.75;;;;;16.14;52.23;97384.72;4787031;29;102459;-77
2021/05/02 13:11:30;;;;;;;;;2.00;1.50;;;;;16.14;52.88;97392.09;4767229;29;105839;-78
2021/05/02 13:14:23;;;;;;;;;2.25;2.00;;;;;16.16;52.98;97403.56;4770281;29;109223;-77
2021/05/02 13:16:54;;;;;;;;;2.50;2.50;;;;;16.15;52.77;97401.91;4784829;29;102674;-77
2021/05/02 13:19:39;;;;;;;;;2.00;1.50;;;;;16.17;53.16;97413.38;4782241;29;104269;-77
2021/05/02 13:22:22;;;;;;;;;2.00;2.00;;;;;16.17;52.92;97438.72;4722681;29;104133;-77
2021/05/02 13:25:12;;;;;;;;;4.00;2.00;;;;;16.16;53.09;97450.75;4775980;29;104493;-77
2021/05/02 13:27:47;;;;;;;;;2.00;2.00;;;;;16.17;52.78;97446.91;4699628;29;102588;-77
2021/05/02 13:30:14;;;;;;;;;2.00;2.00;;;;;16.16;52.50;97437.13;4773181;29;102717;-77
2021/05/02 13:33:00;;;;;;;;;4.25;2.75;;;;;16.17;53.01;97446.09;4772291;29;102254;-77
2021/05/02 13:35:28;;;;;;;;;2.75;2.00;;;;;16.18;52.82;97461.38;4786678;29;109240;-77
2021/05/02 13:37:55;;;;;;;;;1.00;1.00;;;;;16.16;52.72;97466.28;4787184;29;103910;-78
2021/05/02 13:40:24;;;;;;;;;1.00;1.00;;;;;16.16;52.45;97455.38;4764728;29;102779;-78
2021/05/02 13:42:52;;;;;;;;;3.00;2.00;;;;;16.17;52.80;97481.53;4774343;29;102739;-78
2021/05/02 13:45:19;;;;;;;;;2.75;2.00;;;;;16.16;52.33;97472.56;4792189;29;104509;-77
2021/05/02 13:47:46;;;;;;;;;2.50;2.50;;;;;16.16;52.39;97479.94;4785942;29;102966;-78
2021/05/02 13:50:13;;;;;;;;;2.75;1.75;;;;;16.17;52.40;97497.91;4770445;29;102762;-78
2021/05/02 13:52:40;;;;;;;;;1.75;1.25;;;;;16.17;52.26;97495.19;4795304;29;105032;-78
2021/05/02 13:55:07;;;;;;;;;0.75;0.50;;;;;16.16;52.19;97508.03;4773509;29;104531;-78
2021/05/02 13:57:34;;;;;;;;;2.50;1.50;;;;;16.16;52.03;97499.84;4768572;29;107421;-78
2021/05/02 14:00:01;;;;;;;;;2.00;2.00;;;;;16.17;52.38;97512.38;4791980;29;102512;-78
2021/05/02 14:02:28;;;;;;;;;3.00;1.75;;;;;16.17;52.12;97511.53;4770571;29;104264;-78
2021/05/02 14:04:55;;;;;;;;;3.00;2.00;;;;;16.17;52.09;97514.28;4775221;29;104882;-78
2021/05/02 14:07:22;;;;;;;;;1.75;1.75;;;;;16.16;51.57;97527.13;4777966;29;102344;-78
2021/05/02 14:09:50;;;;;;;;;2.50;2.00;;;;;16.17;52.14;97536.91;4770261;29;103737;-78
2021/05/02 14:12:17;;;;;;;;;2.00;2.00;;;;;16.15;51.80;97527.38;4787575;29;103199;-78
2021/05/02 14:14:43;;;;;;;;;3.00;2.50;;;;;16.16;51.34;97531.75;4783676;29;104328;-78
2021/05/02 14:17:10;;;;;;;;;1.25;1.00;;;;;16.16;51.24;97537.19;4768816;29;102563;-78
2021/05/02 14:19:37;;;;;;;;;3.00;2.00;;;;;16.16;52.04;97539.94;4785300;29;102490;-78
2021/05/02 14:22:04;;;;;;;;;2.25;2.00;;;;;16.16;51.45;97539.94;4791449;29;102336;-78
2021/05/02 14:24:31;;;;;;;;;2.00;1.00;;;;;16.16;51.85;97559.03;4770783;29;104087;-78
2021/05/02 14:26:58;;;;;;;;;2.00;2.00;;;;;16.17;51.19;97574.28;4789349;29;103669;-78
2021/05/02 14:29:25;;;;;;;;;1.00;1.00;;;;;16.18;51.45;97565.03;4791574;29;102324;-78
2021/05/02 14:32:06;;;;;;;;;1.25;1.25;;;;;16.15;51.36;97571.00;4679955;29;103422;-78
2021/05/02 14:34:35;;;;;;;;;1.00;1.00;;;;;16.17;51.38;97577.00;4768453;29;104124;-78
2021/05/02 14:37:04;;;;;;;;;2.00;2.00;;;;;16.17;50.93;97579.72;4786985;29;102207;-79
2021/05/02 14:39:32;;;;;;;;;1.75;1.00;;;;;16.17;50.45;97596.91;4763730;29;102704;-78
2021/05/02 14:42:00;;;;;;;;;1.00;1.00;;;;;16.16;50.78;97605.38;4762804;29;102795;-78
2021/05/02 14:44:27;;;;;;;;;3.00;2.50;;;;;16.16;50.95;97595.31;4781479;29;104353;-78
2021/05/02 14:46:54;;;;;;;;;3.00;2.00;;;;;16.15;51.33;97601.00;4772940;29;102645;-78
2021/05/02 14:49:20;;;;;;;;;2.25;2.00;;;;;16.14;51.32;97597.47;4788265;29;102637;-78
2021/05/02 14:52:05;;;;;;;;;2.00;1.33;;;;;16.14;51.27;97596.63;4727274;29;103837;-78
2021/05/02 14:54:34;;;;;;;;;1.50;1.50;;;;;16.15;50.74;97617.38;4790706;29;104170;-78
2021/05/02 14:57:02;;;;;;;;;1.25;1.25;;;;;16.14;50.89;97624.72;4777812;29;102250;-78
2021/05/02 14:59:29;;;;;;;;;1.50;1.50;;;;;16.16;50.82;97624.47;4762677;29;102277;-78
2021/05/02 15:01:56;;;;;;;;;1.00;1.00;;;;;16.11;51.08;97635.34;4793040;29;103208;-76
2021/05/02 15:04:23;;;;;;;;;1.00;1.00;;;;;16.11;50.73;97632.63;4793145;29;103576;-76
2021/05/02 15:06:50;;;;;;;;;1.00;1.00;;;;;16.11;50.89;97646.25;4790178;29;102427;-78
2021/05/02 15:09:17;;;;;;;;;1.25;1.00;;;;;16.12;50.98;97647.91;4757144;29;103430;-78
2021/05/02 15:11:48;;;;;;;;;3.00;2.00;;;;;16.15;50.85;97658.28;4791507;29;102393;-78
2021/05/02 15:14:17;;;;;;;;;2.50;1.75;;;;;16.14;51.27;97662.09;4785422;29;103390;-78
2021/05/02 15:16:44;;;;;;;;;2.75;2.00;;;;;16.14;51.18;97657.47;4769297;29;102762;-78
2021/05/02 15:19:11;;;;;;;;;2.00;2.00;;;;;16.14;51.18;97667.53;4786209;29;103766;-78
2021/05/02 15:21:37;;;;;;;;;1.75;1.75;;;;;16.13;51.27;97663.16;4765600;29;102925;-78
2021/05/02 15:24:04;;;;;;;;;2.00;1.00;;;;;16.12;51.51;97653.34;4779895;29;104057;-78
2021/05/02 15:26:31;;;;;;;;;2.00;2.00;;;;;16.13;51.37;97671.34;4775072;29;104187;-78
2021/05/02 15:29:15;;;;;;;;;2.00;2.00;;;;;16.12;51.22;97673.25;4790502;29;102631;-78
2021/05/02 15:31:46;;;;;;;;;1.75;1.75;;;;;16.11;50.76;97673.53;4754700;29;103085;-78
2021/05/02 15:34:13;;;;;;;;;4.00;3.00;;;;;15.96;49.63;97677.75;4770594;29;104066;-75
2021/05/02 15:36:40;;;;;;;;;2.50;2.00;;;;;15.87;49.76;97698.38;4750293;29;102873;-75
2021/05/02 15:39:07;;;;;;;;;2.67;2.00;;;;;15.77;49.12;97683.81;4755078;29;102721;-76
2021/05/02 15:41:34;;;;;;;;;1.00;1.00;;;;;15.79;49.98;97677.03;4752469;29;103632;-75
2021/05/02 15:44:01;;;;;;;;;2.75;2.75;;;;;15.80;50.22;97686.88;4749346;29;105728;-76
2021/05/02 15:46:31;;;;;;;;;2.00;2.00;;;;;15.85;50.54;97697.00;4745337;29;102632;-76
2021/05/02 15:48:58;;;;;;;;;3.25;2.50;;;;;15.90;50.36;97683.38;4748608;29;102642;-76
2021/05/02 15:51:25;;;;;;;;;2.00;2.00;;;;;15.92;50.56;97682.06;4751217;29;102475;-76
2021/05/02 15:53:56;;;;;;;;;2.25;2.25;;;;;15.94;50.30;97696.25;4749638;29;109860;-76
2021/05/02 15:56:23;;;;;;;;;2.25;2.25;;;;;15.95;50.59;97697.91;4755564;29;102511;-76
2021/05/02 15:58:49;;;;;;;;;4.25;3.00;;;;;15.96;50.61;97699.56;4747607;29;102453;-76
2021/05/02 16:01:16;;;;;;;;;2.75;2.00;;;;;15.97;50.13;97701.22;4757692;29;106232;-76
2021/05/02 16:03:43;;;;;;;;;2.75;2.75;;;;;15.98;50.27;97708.31;4755026;29;104181;-76
2021/05/02 16:06:10;;;;;;;;;2.75;2.75;;;;;15.98;50.30;97708.31;4742481;29;102996;-76
2021/05/02 16:08:37;;;;;;;;;3.00;2.75;;;;;15.98;50.42;97697.41;4748289;29;102327;-76
2021/05/02 16:11:03;;;;;;;;;3.75;3.00;;;;;15.99;50.49;97715.41;4756848;29;103734;-76
2021/05/02 16:13:30;;;;;;;;;2.25;2.00;;;;;16.00;50.38;97717.03;4756689;29;104128;-76
2021/05/02 16:15:56;;;;;;;;;3.50;3.00;;;;;15.99;50.17;97730.94;4755563;29;106239;-76
2021/05/02 16:18:23;;;;;;;;;4.00;3.00;;;;;15.98;50.39;97730.13;4756475;29;102549;-76
2021/05/02 16:20:50;;;;;;;;;3.50;2.00;;;;;15.97;50.22;97744.84;4757142;29;102394;-76
2021/05/02 16:23:17;;;;;;;;;2.00;2.00;;;;;15.97;50.49;97731.22;4754176;29;104059;-76
2021/05/02 16:25:44;;;;;;;;;3.75;3.00;;;;;15.98;50.27;97746.50;4755762;29;102730;-76
2021/05/02 16:28:11;;;;;;;;;3.00;3.00;;;;;15.97;50.49;97744.84;4758990;29;102668;-76
2021/05/02 16:30:37;;;;;;;;;2.00;2.00;;;;;15.98;50.02;97742.94;4757093;29;102686;-76
2021/05/02 16:33:04;;;;;;;;;3.00;3.00;;;;;15.96;50.03;97737.72;4755369;29;106172;-76
2021/05/02 16:35:31;;;;;;;;;2.25;2.00;;;;;15.98;50.26;97762.03;4774305;29;102632;-76
2021/05/02 16:37:58;;;;;;;;;3.75;3.75;;;;;15.97;50.15;97746.75;4772724;29;103857;-76
2021/05/02 16:40:25;;;;;;;;;2.50;2.00;;;;;15.95;50.09;97746.97;4795236;29;103644;-76
2021/05/02 16:42:51;;;;;;;;;3.00;2.00;;;;;15.96;50.23;97754.09;4787467;29;104124;-76
2021/05/02 16:45:18;;;;;;;;;3.25;2.00;;;;;15.95;50.53;97752.44;4793544;29;102253;-76
2021/05/02 16:47:45;;;;;;;;;2.00;2.00;;;;;15.94;50.12;97750.78;4770227;29;102478;-76
2021/05/02 16:50:12;;;;;;;;;2.25;2.25;;;;;15.94;50.24;97755.44;4793861;29;102211;-75
2021/05/02 16:52:39;;;;;;;;;1.00;1.00;;;;;15.93;50.75;97773.69;4778637;29;104866;-76
2021/05/02 16:55:06;;;;;;;;;3.00;2.00;;;;;15.93;50.45;97762.78;4789859;29;102134;-76
2021/05/02 16:57:33;;;;;;;;;4.00;2.50;;;;;15.94;50.15;97774.53;4790310;29;103945;-76
2021/05/02 17:00:00;;;;;;;;;4.00;3.50;;;;;15.94;50.24;97777.25;4785181;29;102444;-76
2021/05/02 17:02:26;;;;;;;;;3.00;2.00;;;;;15.92;50.03;97777.50;4794621;29;105646;-76
2021/05/02 17:04:53;;;;;;;;;2.00;2.00;;;;;15.91;50.40;97778.56;4788348;29;102359;-76
2021/05/02 17:07:20;;;;;;;;;3.00;3.00;;;;;15.91;50.27;97792.19;4777372;29;104501;-76
2021/05/02 17:09:46;;;;;;;;;2.25;2.25;;;;;15.90;50.14;97789.72;4795063;29;102518;-75
2021/05/02 17:12:13;;;;;;;;;2.50;2.50;;;;;15.89;50.24;97788.91;4785738;29;104153;-76
2021/05/02 17:14:41;;;;;;;;;2.50;2.50;;;;;15.90;50.21;97809.63;4788825;29;102257;-76
2021/05/02 17:17:07;;;;;;;;;2.00;2.00;;;;;15.89;50.18;97808.00;4776176;29;102613;-76
2021/05/02 17:19:35;;;;;;;;;2.00;1.75;;;;;15.89;50.19;97808.00;4791956;29;102311;-76
2021/05/02 17:22:02;;;;;;;;;2.00;2.00;;;;;15.89;49.67;97809.91;4788879;29;104097;-76
2021/05/02 17:24:29;;;;;;;;;2.00;2.00;;;;;15.87;50.23;97812.88;4788636;29;102112;-76
2021/05/02 17:26:56;;;;;;;;;3.00;3.00;;;;;15.87;50.36;97821.06;4786646;29;104695;-76
2021/05/02 17:29:23;;;;;;;;;3.00;2.00;;;;;15.87;50.05;97825.69;4791510;29;102728;-76
2021/05/02 17:31:49;;;;;;;;;2.00;2.00;;;;;15.86;49.29;97815.84;4788798;29;104255;-76
2021/05/02 17:34:16;;;;;;;;;2.00;2.00;;;;;15.86;50.41;97819.41;4793129;29;102193;-76
2021/05/02 17:36:43;;;;;;;;;1.00;1.00;;;;;15.86;50.18;97821.28;4790849;29;102580;-76
2021/05/02 17:39:10;;;;;;;;;2.00;2.00;;;;;15.84;50.06;97837.94;4795629;29;102270;-76
2021/05/02 17:41:37;;;;;;;;;1.50;1.50;;;;;15.84;50.10;97845.28;4791672;29;105738;-76
2021/05/02 17:44:04;;;;;;;;;1.75;1.75;;;;;15.83;50.19;97833.53;4790280;29;102255;-76
2021/05/02 17:46:31;;;;;;;;;1.25;1.25;;;;;15.82;50.01;97840.06;4786385;29;102446;-76
2021/05/02 17:48:59;;;;;;;;;2.00;2.00;;;;;15.83;50.07;97838.16;4795796;29;102809;-76
2021/05/02 17:51:26;;;;;;;;;2.50;2.00;;;;;15.82;49.78;97842.78;4763930;29;104192;-76
2021/05/02 17:53:55;;;;;;;;;2.00;2.00;;;;;15.81;49.96;97846.59;4791180;29;102199;-76
2021/05/02 17:56:23;;;;;;;;;1.50;1.50;;;;;15.80;50.10;97836.78;4788497;29;102276;-75
2021/05/02 17:58:53;;;;;;;;;1.50;1.50;;;;;15.79;50.01;97843.31;4786556;29;102469;-76
2021/05/02 18:01:19;;;;;;;;;2.00;1.50;;;;;15.78;50.02;97852.56;4790480;29;104211;-76
2021/05/02 18:03:46;;;;;;;;;2.25;2.00;;;;;15.79;50.33;97858.84;4789860;29;102437;-76
2021/05/02 18:06:13;;;;;;;;;1.00;1.00;;;;;15.79;50.27;97861.56;4785058;29;102642;-76
2021/05/02 18:08:40;;;;;;;;;2.25;2.00;;;;;15.78;50.45;97865.38;4786732;29;102727;-76
2021/05/02 18:11:06;;;;;;;;;1.25;1.00;;;;;15.78;50.25;97866.19;4789170;29;104099;-76
2021/05/02 18:13:33;;;;;;;;;2.75;2.00;;;;;15.77;49.97;97874.59;4794646;29;102542;-76
2021/05/02 18:16:00;;;;;;;;;1.00;1.00;;;;;15.77;50.21;97886.34;4788142;29;103513;-76
2021/05/02 18:18:27;;;;;;;;;1.50;1.25;;;;;15.77;50.07;97893.69;4794277;29;102466;-76
2021/05/02 18:20:56;;;;;;;;;3.00;1.50;;;;;15.76;50.38;97892.06;4795165;29;108967;-76
2021/05/02 18:23:23;;;;;;;;;1.00;0.75;;;;;15.75;50.23;97909.50;4787306;29;102258;-76
2021/05/02 18:25:50;;;;;;;;;1.25;1.25;;;;;15.75;50.18;97925.84;4768382;29;102535;-76
2021/05/02 18:28:17;;;;;;;;;2.00;1.00;;;;;15.75;50.22;97932.13;4791283;29;102541;-75
2021/05/02 18:30:44;;;;;;;;;1.00;0.75;;;;;15.75;50.09;97931.28;4783954;29;104025;-76
2021/05/02 18:33:11;;;;;;;;;1.00;1.00;;;;;15.74;50.10;97938.63;4788930;29;104104;-76
2021/05/02 18:35:37;;;;;;;;;2.00;2.00;;;;;15.74;50.07;97963.19;4791252;29;102408;-76
2021/05/02 18:38:04;;;;;;;;;1.25;1.25;;;;;15.73;50.14;97964.25;4796887;29;102432;-76
2021/05/02 18:40:31;;;;;;;;;1.00;1.00;;;;;15.72;50.36;97953.56;4787158;29;104060;-76
2021/05/02 18:43:01;;;;;;;;;1.00;1.00;;;;;15.72;50.21;97962.59;4788816;29;102248;-76
2021/05/02 18:45:28;;;;;;;;;2.50;2.00;;;;;15.72;50.18;97964.47;4788106;29;102124;-76
2021/05/02 18:47:55;;;;;;;;;1.00;1.00;;;;;15.73;50.07;97956.06;4797339;29;103681;-76
2021/05/02 18:50:22;;;;;;;;;1.25;1.00;;;;;15.71;50.12;97954.69;4785365;29;103867;-76
2021/05/02 18:52:49;;;;;;;;;0.75;0.75;;;;;15.70;50.04;97962.03;4790898;29;102498;-76
2021/05/02 18:55:16;;;;;;;;;1.00;1.00;;;;;15.70;50.26;97967.47;4793054;29;102341;-76
2021/05/02 18:57:43;;;;;;;;;1.00;1.00;;;;;15.70;50.16;97972.94;4786794;29;102576;-76
2021/05/02 19:00:10;;;;;;;;;1.00;1.00;;;;;15.70;50.09;97978.38;4767301;29;104115;-76
2021/05/02 19:02:37;;;;;;;;;1.25;1.00;;;;;15.68;50.35;97980.50;4793431;29;102353;-76
2021/05/02 19:05:04;;;;;;;;;0.00;0.00;;;;;15.69;50.06;97997.69;4787195;29;102619;-76
2021/05/02 19:07:31;;;;;;;;;1.00;1.00;;;;;15.69;50.07;98003.16;4783340;29;104188;-76
2021/05/02 19:09:57;;;;;;;;;1.75;1.75;;;;;15.70;50.20;98010.25;4790302;29;104100;-76
2021/05/02 19:12:24;;;;;;;;;1.00;1.00;;;;;15.68;50.32;98002.31;4785016;29;102519;-76
2021/05/02 19:14:51;;;;;;;;;1.00;1.00;;;;;15.68;50.00;98018.66;4785092;29;103188;-75
2021/05/02 19:17:17;;;;;;;;;0.50;0.50;;;;;15.66;49.99;98015.38;4787693;29;103378;-76
2021/05/02 19:19:44;;;;;;;;;1.00;1.00;;;;;15.67;50.12;98017.00;4793890;29;104332;-76
2021/05/02 19:22:11;;;;;;;;;2.25;1.50;;;;;15.66;50.29;98025.47;4787399;29;103948;-76
2021/05/02 19:24:38;;;;;;;;;1.75;1.75;;;;;15.66;50.20;98026.28;4773559;29;102466;-76
2021/05/02 19:27:05;;;;;;;;;2.00;2.00;;;;;15.66;49.83;98030.91;4792497;29;103880;-76
2021/05/02 19:29:32;;;;;;;;;1.25;1.25;;;;;15.64;50.08;98014.78;4789971;29;104060;-76
2021/05/02 19:31:58;;;;;;;;;1.00;1.00;;;;;15.62;50.11;98023.19;4760546;29;104532;-76
2021/05/02 19:34:25;;;;;;;;;1.75;1.75;;;;;15.64;50.00;98028.41;4783151;29;103706;-76
2021/05/02 19:36:52;;;;;;;;;2.50;2.00;;;;;15.63;49.96;98029.47;4789712;29;102676;-76
2021/05/02 19:39:18;;;;;;;;;1.00;1.00;;;;;15.63;50.36;98037.66;4771679;29;104073;-76
2021/05/02 19:41:45;;;;;;;;;1.00;1.00;;;;;15.62;50.32;98038.75;4790758;29;103604;-76
2021/05/02 19:44:12;;;;;;;;;2.00;1.50;;;;;15.63;49.77;98037.66;4787478;29;104664;-76
2021/05/02 19:46:39;;;;;;;;;0.75;0.75;;;;;15.61;50.19;98039.81;4790182;29;102665;-76
2021/05/02 19:49:05;;;;;;;;;2.00;1.50;;;;;15.61;50.14;98045.28;4764712;29;103853;-76
2021/05/02 19:51:32;;;;;;;;;3.50;1.00;;;;;15.61;50.13;98039.81;4794337;29;102746;-76
2021/05/02 19:53:59;;;;;;;;;0.75;0.75;;;;;15.60;50.02;98043.63;4787968;29;103830;-76
2021/05/02 19:56:25;;;;;;;;;1.00;1.00;;;;;15.60;49.94;98047.16;4789476;29;102504;-76
2021/05/02 19:58:52;;;;;;;;;1.00;1.00;;;;;15.60;49.84;98049.06;4793298;29;104256;-76
2021/05/02 20:01:19;;;;;;;;;1.00;1.00;;;;;15.61;50.00;98050.72;4791396;29;105495;-76
2021/05/02 20:03:46;;;;;;;;;1.00;1.00;;;;;15.59;49.95;98047.41;4787335;29;102497;-76
2021/05/02 20:06:12;;;;;;;;;1.00;0.25;;;;;15.58;49.83;98052.03;4791461;29;102653;-76
2021/05/02 20:08:39;;;;;;;;;1.50;1.50;;;;;15.58;50.07;98057.47;4787875;29;104102;-76
2021/05/02 20:11:06;;;;;;;;;1.50;1.50;;;;;15.58;50.12;98053.91;4770105;29;106185;-76
2021/05/02 20:13:33;;;;;;;;;1.25;1.00;;;;;15.58;49.85;98056.66;4788831;29;102181;-76
2021/05/02 20:16:00;;;;;;;;;1.00;1.00;;;;;15.57;49.89;98049.56;4793476;29;102783;-76
2021/05/02 20:18:27;;;;;;;;;1.25;1.25;;;;;15.57;49.79;98050.41;4760028;29;104345;-76
2021/05/02 20:20:53;;;;;;;;;1.00;1.00;;;;;15.57;49.95;98055.03;4787221;29;102618;-76
2021/05/02 20:23:21;;;;;;;;;1.00;1.00;;;;;15.56;50.11;98048.75;4792279;29;103549;-76
2021/05/02 20:25:48;;;;;;;;;1.50;1.25;;;;;15.57;50.32;98050.41;4777038;29;102778;-76
2021/05/02 20:28:16;;;;;;;;;2.00;1.00;;;;;15.57;50.06;98049.56;4771863;29;104056;-76
2021/05/02 20:30:43;;;;;;;;;1.00;1.00;;;;;15.56;49.96;98059.63;4770927;29;102303;-75
2021/05/02 20:33:12;;;;;;;;;1.00;1.00;;;;;15.54;49.71;98050.88;4783151;29;102390;-76
2021/05/02 20:35:40;;;;;;;;;1.00;1.00;;;;;15.56;50.23;98047.91;4773941;29;102530;-76
2021/05/02 20:38:07;;;;;;;;;1.00;1.00;;;;;15.55;49.91;98048.97;4789073;29;104323;-76
2021/05/02 20:40:34;;;;;;;;;3.50;1.75;;;;;15.55;50.06;98052.53;4795720;29;102687;-76
2021/05/02 20:43:01;;;;;;;;;1.00;1.00;;;;;15.53;49.51;98054.69;4787779;29;102503;-76
2021/05/02 20:45:28;;;;;;;;;2.00;1.50;;;;;15.53;49.98;98051.97;4794133;29;102679;-76
2021/05/02 20:47:55;;;;;;;;;1.50;1.50;;;;;15.54;50.10;98067.22;4795522;29;111374;-76
2021/05/02 20:50:27;;;;;;;;;0.00;0.00;;;;;15.52;50.08;98055.75;4786320;29;102345;-76
2021/05/02 20:52:55;;;;;;;;;0.25;0.25;;;;;15.52;49.82;98063.09;4773504;29;102276;-76
2021/05/02 20:55:22;;;;;;;;;1.00;1.00;;;;;15.53;50.27;98064.75;4791739;29;102269;-76
2021/05/02 20:57:48;;;;;;;;;3.00;1.00;;;;;15.52;49.92;98063.94;4785741;29;103799;-76
2021/05/02 21:00:16;;;;;;;;;0.00;0.00;;;;;15.52;50.21;98057.66;4788388;29;103481;-76
2021/05/02 21:02:43;;;;;;;;;1.50;1.50;;;;;15.50;49.95;98073.38;4793225;29;102522;-76
2021/05/02 21:05:10;;;;;;;;;0.50;0.50;;;;;15.51;49.92;98080.53;4787620;29;102265;-76
2021/05/02 21:07:37;;;;;;;;;1.00;1.00;;;;;15.51;49.89;98073.16;4754502;29;104062;-76
2021/05/02 21:10:05;;;;;;;;;1.00;1.00;;;;;15.50;50.49;98070.66;4789758;29;102539;-76
2021/05/02 21:12:32;;;;;;;;;1.00;1.00;;;;;15.50;49.71;98070.66;4797019;29;102818;-76